sensor_id;sensor_type;location;lat;lon;timestamp;P1;durP1;ratioP1;P2;durP2;ratioP2
5458;SDS011;2752;49.992;8.422;2022-11-09T21:04:51;7.77;;;3.30;;
5458;SDS011;2752;49.992;8.422;2022-11-09T21:07:17;9.93;;;3.00;;
5458;SDS011;2752;49.992;8.422;2022-11-09T21:09:44;6.63;;;3.10;;
5458;SDS011;2752;49.992;8.422;2022-11-09T21:12:11;5.40;;;2.80;;
5458;SDS011;2752;49.992;8.422;2022-11-09T21:14:48;7.07;;;3.30;;
5458;SDS011;2752;49.992;8.422;2022-11-09T21:17:16;11.10;;;3.30;;
5458;SDS011;2752;49.992;8.422;2022-11-09T21:19:43;7.20;;;3.03;;
5458;SDS011;2752;49.992;8.422;2022-11-09T21:22:11;7.60;;;2.67;;
5458;SDS011;2752;49.992;8.422;2022-11-09T21:24:38;12.00;;;3.20;;
5458;SDS011;2752;49.992;8.422;2022-11-09T21:27:23;15.40;;;3.87;;
5458;SDS011;2752;49.992;8.422;2022-11-09T21:30:07;12.23;;;4.23;;
5458;SDS011;2752;49.992;8.422;2022-11-09T21:32:34;11.90;;;5.47;;
5458;SDS011;2752;49.992;8.422;2022-11-09T21:35:01;21.23;;;4.87;;
5458;SDS011;2752;49.992;8.422;2022-11-09T21:37:30;11.83;;;5.37;;
5458;SDS011;2752;49.992;8.422;2022-11-09T21:39:57;10.83;;;4.70;;
5458;SDS011;2752;49.992;8.422;2022-11-09T21:42:24;19.50;;;6.60;;
5458;SDS011;2752;49.992;8.422;2022-11-09T21:44:50;14.47;;;5.23;;
5458;SDS011;2752;49.992;8.422;2022-11-09T21:47:17;13.30;;;5.30;;
5458;SDS011;2752;49.992;8.422;2022-11-09T21:49:44;19.23;;;5.30;;
5458;SDS011;2752;49.992;8.422;2022-11-09T21:52:10;17.27;;;5.07;;
5458;SDS011;2752;49.992;8.422;2022-11-09T21:54:38;12.93;;;5.70;;
5458;SDS011;2752;49.992;8.422;2022-11-09T21:57:06;15.07;;;4.30;;
5458;SDS011;2752;49.992;8.422;2022-11-09T21:59:33;11.90;;;4.37;;
5458;SDS011;2752;49.992;8.422;2022-11-09T22:01:59;11.87;;;3.73;;
5458;SDS011;2752;49.992;8.422;2022-11-09T22:04:26;8.87;;;3.60;;
5458;SDS011;2752;49.992;8.422;2022-11-09T22:06:53;10.93;;;3.60;;
5458;SDS011;2752;49.992;8.422;2022-11-09T22:09:20;10.30;;;4.00;;
5458;SDS011;2752;49.992;8.422;2022-11-09T22:11:48;9.00;;;3.53;;
5458;SDS011;2752;49.992;8.422;2022-11-09T22:14:32;6.63;;;3.57;;
5458;SDS011;2752;49.992;8.422;2022-11-09T22:17:16;6.67;;;3.53;;
5458;SDS011;2752;49.992;8.422;2022-11-09T22:19:43;8.03;;;4.40;;
5458;SDS011;2752;49.992;8.422;2022-11-09T22:22:27;10.70;;;4.10;;
5458;SDS011;2752;49.992;8.422;2022-11-09T22:24:55;13.97;;;4.10;;
5458;SDS011;2752;49.992;8.422;2022-11-09T22:27:23;15.57;;;3.80;;
5458;SDS011;2752;49.992;8.422;2022-11-09T22:29:50;12.93;;;3.47;;
5458;SDS011;2752;49.992;8.422;2022-11-09T22:32:17;6.90;;;2.93;;
5458;SDS011;2752;49.992;8.422;2022-11-09T22:34:43;16.07;;;3.07;;
5458;SDS011;2752;49.992;8.422;2022-11-09T22:37:10;9.50;;;3.20;;
5458;SDS011;2752;49.992;8.422;2022-11-09T22:39:37;7.87;;;4.73;;
5458;SDS011;2752;49.992;8.422;2022-11-09T22:42:04;7.40;;;2.77;;
5458;SDS011;2752;49.992;8.422;2022-11-09T22:44:32;7.77;;;3.20;;
5458;SDS011;2752;49.992;8.422;2022-11-09T22:46:58;14.80;;;3.70;;
5458;SDS011;2752;49.992;8.422;2022-11-09T22:49:25;10.10;;;3.73;;
5458;SDS011;2752;49.992;8.422;2022-11-09T22:51:52;7.03;;;3.17;;
5458;SDS011;2752;49.992;8.422;2022-11-09T22:54:19;11.63;;;3.03;;
5458;SDS011;2752;49.992;8.422;2022-11-09T22:56:46;11.37;;;3.13;;
5458;SDS011;2752;49.992;8.422;2022-11-09T22:59:12;9.63;;;3.37;;
5458;SDS011;2752;49.992;8.422;2022-11-09T23:01:40;8.00;;;3.23;;
5458;SDS011;2752;49.992;8.422;2022-11-09T23:04:07;6.37;;;2.90;;
5458;SDS011;2752;49.992;8.422;2022-11-09T23:06:35;6.37;;;3.17;;
5458;SDS011;2752;49.992;8.422;2022-11-09T23:09:01;7.90;;;4.00;;
5458;SDS011;2752;49.992;8.422;2022-11-09T23:11:28;10.40;;;3.03;;
5458;SDS011;2752;49.992;8.422;2022-11-09T23:13:55;11.40;;;3.60;;
5458;SDS011;2752;49.992;8.422;2022-11-09T23:16:22;8.87;;;3.40;;
5458;SDS011;2752;49.992;8.422;2022-11-09T23:18:50;14.77;;;3.33;;
5458;SDS011;2752;49.992;8.422;2022-11-09T23:21:20;10.80;;;3.30;;
5458;SDS011;2752;49.992;8.422;2022-11-09T23:23:48;22.03;;;4.70;;
5458;SDS011;2752;49.992;8.422;2022-11-09T23:26:16;10.73;;;3.60;;
5458;SDS011;2752;49.992;8.422;2022-11-09T23:28:43;11.17;;;3.83;;
5458;SDS011;2752;49.992;8.422;2022-11-09T23:31:10;24.27;;;4.00;;
5458;SDS011;2752;49.992;8.422;2022-11-09T23:33:47;13.60;;;3.50;;
5458;SDS011;2752;49.992;8.422;2022-11-09T23:36:16;11.57;;;4.03;;
5458;SDS011;2752;49.992;8.422;2022-11-09T23:38:43;12.90;;;4.77;;
5458;SDS011;2752;49.992;8.422;2022-11-09T23:41:11;11.33;;;3.77;;
5458;SDS011;2752;49.992;8.422;2022-11-09T23:43:39;13.17;;;3.80;;
5458;SDS011;2752;49.992;8.422;2022-11-09T23:46:06;7.77;;;3.70;;
5458;SDS011;2752;49.992;8.422;2022-11-09T23:48:35;6.97;;;4.17;;
5458;SDS011;2752;49.992;8.422;2022-11-09T23:51:02;7.60;;;3.60;;
5458;SDS011;2752;49.992;8.422;2022-11-09T23:53:31;6.67;;;3.00;;
5458;SDS011;2752;49.992;8.422;2022-11-09T23:55:58;10.67;;;3.60;;
5458;SDS011;2752;49.992;8.422;2022-11-09T23:58:26;6.70;;;3.40;;
